createdAt,value
2022-11-20T00:07:00.621Z,19.8294
2022-11-20T00:22:02.540Z,19.5793
2022-11-20T00:37:04.630Z,20.0473
2022-11-20T00:52:06.534Z,19.8393
2022-11-20T01:07:08.502Z,20.1575
2022-11-20T01:22:10.474Z,18.6631
2022-11-20T01:37:12.370Z,19.1732
2022-11-20T01:52:14.272Z,19.2481
2022-11-20T02:07:16.228Z,18.9231
2022-11-20T02:22:18.128Z,18.9491
2022-11-20T02:37:20.019Z,19.674
2022-11-20T02:52:21.938Z,19.8269
2022-11-20T03:07:23.930Z,21.6141
2022-11-20T03:22:25.849Z,21.988
2022-11-20T03:37:27.775Z,22.5798
2022-11-20T03:52:29.686Z,23.7919
2022-11-20T04:07:31.616Z,23.6978
2022-11-20T04:22:33.555Z,23.7987
2022-11-20T04:37:35.488Z,23.9225
2022-11-20T04:52:37.388Z,25.0473
2022-11-20T05:07:39.338Z,25.2485
2022-11-20T05:22:41.277Z,25.064
2022-11-20T05:37:43.209Z,26.2433
2022-11-20T05:52:45.158Z,25.6001
2022-11-20T06:07:47.169Z,25.7821
2022-11-20T06:22:49.061Z,26.3479
2022-11-20T06:37:50.991Z,25.3079
2022-11-20T06:52:52.885Z,23.7541
2022-11-20T07:07:54.774Z,26.6172
2022-11-20T07:22:56.649Z,27.079
2022-11-20T07:37:58.560Z,26.9849
2022-11-20T07:53:00.469Z,27.196
2022-11-20T08:08:02.369Z,27.5278
2022-11-20T08:23:04.313Z,27.0078
2022-11-20T08:38:06.277Z,26.4649
2022-11-20T08:53:08.204Z,25.7202
2022-11-20T09:08:10.165Z,24.726
2022-11-20T09:23:12.072Z,22.0709
2022-11-20T09:38:13.996Z,20.8873
2022-11-20T09:53:15.893Z,21.7156
2022-11-20T10:08:17.959Z,21.3838
2022-11-20T10:23:25.433Z,20.1457
2022-11-20T10:38:27.781Z,21.2408
2022-11-20T10:53:29.697Z,19.9247
2022-11-20T11:08:31.651Z,19.2809
2022-11-20T11:23:33.545Z,19.167
2022-11-20T11:38:35.560Z,19.1577
2022-11-20T11:53:37.438Z,18.5919
2022-11-20T12:08:39.437Z,17.815
2022-11-20T12:23:41.398Z,18.8519
2022-11-20T12:38:43.342Z,18.5362
2022-11-20T12:53:45.283Z,17.4801
2022-11-20T13:08:47.094Z,18.9361
2022-11-20T13:23:48.918Z,18.0812
2022-11-20T13:38:50.777Z,17.1743
2022-11-20T13:53:52.617Z,18.6891
2022-11-20T14:08:54.653Z,17.8212
2022-11-20T14:23:56.561Z,16.6351
2022-11-20T14:38:58.495Z,18.5752
2022-11-20T14:54:00.387Z,17.5513
2022-11-20T15:09:02.298Z,17.5507
2022-11-20T15:24:04.202Z,18.6043
2022-11-20T15:39:06.153Z,17.9184
2022-11-20T15:54:08.108Z,17.2325
2022-11-20T16:09:10.049Z,18.5424
2022-11-20T16:24:11.977Z,17.9834
2022-11-20T16:39:15.829Z,17.2944
2022-11-20T16:54:21.624Z,18.3022
2022-11-20T17:09:23.619Z,17.9444
2022-11-20T17:24:27.806Z,17.4764
2022-11-20T17:39:33.463Z,18.1394
2022-11-20T17:54:35.360Z,18.3796
2022-11-20T18:09:37.226Z,18.6043
2022-11-20T18:24:39.143Z,17.9834
2022-11-20T18:39:41.023Z,18.1852
2022-11-20T18:54:42.927Z,18.3573
2022-11-20T19:09:44.845Z,18.2304
2022-11-20T19:24:46.788Z,20.4701
2022-11-20T19:39:48.697Z,21.6822
2022-11-20T19:54:50.699Z,22.1081
2022-11-20T20:09:52.631Z,21.9496
2022-11-20T20:24:54.578Z,23.6365
2022-11-20T20:39:56.488Z,24.4035
2022-11-20T20:54:58.422Z,23.6823
2022-11-20T21:10:00.305Z,22.2975
2022-11-20T21:25:02.232Z,23.4613
2022-11-20T21:40:04.119Z,24.2017
2022-11-20T21:55:06.051Z,23.8513
2022-11-20T22:10:07.953Z,24.0234
2022-11-20T22:25:10.036Z,23.3505
2022-11-20T22:40:11.947Z,23.9423
2022-11-20T22:55:16.389Z,24.2574
2022-11-20T23:10:18.549Z,24.3094
2022-11-20T23:25:20.431Z,23.9002
2022-11-20T23:40:22.459Z,23.7442
2022-11-20T23:55:24.401Z,23.7244
